createdAt,value
2018-06-24T00:01:23.406Z,12.20
2018-06-24T00:03:54.013Z,12.20
2018-06-24T00:06:24.587Z,12.20
2018-06-24T00:08:55.157Z,12.20
2018-06-24T00:11:25.725Z,12.20
2018-06-24T00:13:56.266Z,12.20
2018-06-24T00:16:26.781Z,12.20
2018-06-24T00:18:57.353Z,12.20
2018-06-24T00:21:27.880Z,12.20
2018-06-24T00:23:58.453Z,12.20
2018-06-24T00:26:28.959Z,12.20
2018-06-24T00:31:29.574Z,12.30
2018-06-24T00:34:00.119Z,12.30
2018-06-24T00:36:30.706Z,12.20
2018-06-24T00:39:01.241Z,12.20
2018-06-24T00:41:31.797Z,12.20
2018-06-24T00:44:02.301Z,12.20
2018-06-24T00:46:32.907Z,12.10
2018-06-24T00:49:03.415Z,12.10
2018-06-24T00:51:33.977Z,12.00
2018-06-24T00:54:04.506Z,12.00
2018-06-24T00:56:35.037Z,11.90
2018-06-24T00:59:05.675Z,11.90
2018-06-24T01:01:36.200Z,11.80
2018-06-24T01:04:06.694Z,11.80
2018-06-24T01:11:38.013Z,11.90
2018-06-24T01:14:08.529Z,11.90
2018-06-24T01:16:39.081Z,11.90
2018-06-24T01:19:09.675Z,11.90
2018-06-24T01:21:40.261Z,11.90
2018-06-24T01:24:10.780Z,11.80
2018-06-24T01:26:41.329Z,11.80
2018-06-24T01:29:11.808Z,11.90
2018-06-24T01:31:42.369Z,11.90
2018-06-24T01:34:12.876Z,11.90
2018-06-24T01:36:43.473Z,11.90
2018-06-24T01:39:13.990Z,11.90
2018-06-24T01:41:44.521Z,11.90
2018-06-24T01:44:15.017Z,11.80
2018-06-24T01:46:45.576Z,11.80
2018-06-24T01:49:16.278Z,11.80
2018-06-24T01:51:47.752Z,11.80
2018-06-24T01:54:18.272Z,11.80
2018-06-24T01:56:48.817Z,11.80
2018-06-24T01:59:19.326Z,11.80
2018-06-24T02:01:49.857Z,11.80
2018-06-24T02:04:20.418Z,11.80
2018-06-24T02:06:51.105Z,11.80
2018-06-24T02:09:21.605Z,11.80
2018-06-24T02:11:52.152Z,11.70
2018-06-24T02:14:22.644Z,11.70
2018-06-24T02:16:53.198Z,11.70
2018-06-24T02:19:23.685Z,11.70
2018-06-24T02:21:54.213Z,11.70
2018-06-24T02:26:54.801Z,11.70
2018-06-24T02:29:25.284Z,11.70
2018-06-24T02:31:55.861Z,11.70
2018-06-24T02:34:26.386Z,11.80
2018-06-24T02:36:57.113Z,11.80
2018-06-24T02:39:27.672Z,11.80
2018-06-24T02:41:58.262Z,11.80
2018-06-24T02:44:28.758Z,11.80
2018-06-24T02:46:59.304Z,11.80
2018-06-24T02:52:00.301Z,11.70
2018-06-24T02:54:30.813Z,11.70
2018-06-24T02:57:01.319Z,11.80
2018-06-24T02:59:31.826Z,11.70
2018-06-24T03:02:02.349Z,11.80
2018-06-24T03:04:32.865Z,11.80
2018-06-24T03:07:03.467Z,11.80
2018-06-24T03:09:33.972Z,11.80
2018-06-24T03:12:04.546Z,11.90
2018-06-24T03:14:35.096Z,11.90
2018-06-24T03:17:05.645Z,11.90
2018-06-24T03:22:06.335Z,11.90
2018-06-24T03:24:36.823Z,12.00
2018-06-24T03:27:07.412Z,11.90
2018-06-24T03:29:37.913Z,12.00
2018-06-24T03:32:08.489Z,12.00
2018-06-24T03:34:38.994Z,12.00
2018-06-24T03:37:09.604Z,12.00
2018-06-24T03:39:40.130Z,12.10
2018-06-24T03:42:10.629Z,12.10
2018-06-24T03:44:41.178Z,12.10
2018-06-24T03:47:11.682Z,12.10
2018-06-24T03:49:42.242Z,12.20
2018-06-24T03:52:12.778Z,12.20
2018-06-24T03:54:43.345Z,12.20
2018-06-24T03:57:13.876Z,12.20
2018-06-24T03:59:44.411Z,12.30
2018-06-24T04:02:15.000Z,12.30
2018-06-24T04:04:45.537Z,12.30
2018-06-24T04:07:16.098Z,12.40
2018-06-24T04:09:46.636Z,12.30
2018-06-24T04:12:17.270Z,12.40
2018-06-24T04:14:48.953Z,12.40
2018-06-24T04:17:19.543Z,12.40
2018-06-24T04:19:50.068Z,12.30
2018-06-24T04:22:20.988Z,12.40
2018-06-24T04:24:51.484Z,12.40
2018-06-24T04:27:22.061Z,12.40
2018-06-24T04:29:52.582Z,12.40
2018-06-24T04:32:23.136Z,12.40
2018-06-24T04:34:53.633Z,12.40
2018-06-24T04:37:24.172Z,12.40
2018-06-24T04:39:54.716Z,12.40
2018-06-24T04:42:25.254Z,12.40
2018-06-24T04:44:55.779Z,12.40
2018-06-24T04:47:26.329Z,12.50
2018-06-24T04:49:56.837Z,12.50
2018-06-24T04:52:27.342Z,12.50
2018-06-24T04:54:57.872Z,12.60
2018-06-24T04:57:28.381Z,12.60
2018-06-24T04:59:58.937Z,12.70
2018-06-24T05:02:29.426Z,12.70
2018-06-24T05:04:59.986Z,12.70
2018-06-24T05:07:30.497Z,12.80
2018-06-24T05:10:01.065Z,12.80
2018-06-24T05:12:31.568Z,12.80
2018-06-24T05:15:02.106Z,12.80
2018-06-24T05:17:32.635Z,12.80
2018-06-24T05:20:03.193Z,12.90
2018-06-24T05:25:03.888Z,12.90
2018-06-24T05:27:34.450Z,13.00
2018-06-24T05:30:05.048Z,13.00
2018-06-24T05:32:35.569Z,13.00
2018-06-24T05:35:06.275Z,13.10
2018-06-24T05:37:36.797Z,13.10
2018-06-24T05:40:07.397Z,13.10
2018-06-24T05:42:37.934Z,13.10
2018-06-24T05:45:08.496Z,13.10
2018-06-24T05:47:39.084Z,13.20
2018-06-24T05:50:09.643Z,13.30
2018-06-24T05:57:40.508Z,13.60
2018-06-24T06:02:43.688Z,13.60
2018-06-24T06:05:15.121Z,13.70
2018-06-24T06:07:45.921Z,13.70
2018-06-24T06:10:16.606Z,13.70
2018-06-24T06:12:47.085Z,13.80
2018-06-24T06:15:17.633Z,13.80
2018-06-24T06:17:48.145Z,13.80
2018-06-24T06:20:18.681Z,13.90
2018-06-24T06:22:49.220Z,13.90
2018-06-24T06:25:19.742Z,14.00
2018-06-24T06:27:50.286Z,14.10
2018-06-24T06:30:20.871Z,14.10
2018-06-24T06:32:51.397Z,14.20
2018-06-24T06:35:21.958Z,14.20
2018-06-24T06:37:52.505Z,14.30
2018-06-24T06:40:23.000Z,14.30
2018-06-24T06:42:53.573Z,14.30
2018-06-24T06:45:24.268Z,14.40
2018-06-24T06:47:54.746Z,14.40
2018-06-24T06:50:25.250Z,14.50
2018-06-24T06:52:55.805Z,14.70
2018-06-24T06:55:26.333Z,14.80
2018-06-24T06:57:56.912Z,14.90
2018-06-24T07:00:27.485Z,15.00
2018-06-24T07:02:58.091Z,15.10
2018-06-24T07:05:28.605Z,15.30
2018-06-24T07:07:59.202Z,15.30
2018-06-24T07:10:29.817Z,15.50
2018-06-24T07:13:00.380Z,15.50
2018-06-24T07:15:30.944Z,15.60
2018-06-24T07:18:01.530Z,15.70
2018-06-24T07:20:32.502Z,15.80
2018-06-24T07:23:03.946Z,15.90
2018-06-24T07:25:34.489Z,16.10
2018-06-24T07:28:05.057Z,16.20
2018-06-24T07:30:35.661Z,16.30
2018-06-24T07:33:06.283Z,16.30
2018-06-24T07:35:36.802Z,16.40
2018-06-24T07:38:07.532Z,16.60
2018-06-24T07:40:38.039Z,16.70
2018-06-24T07:43:08.639Z,16.70
2018-06-24T07:45:39.137Z,16.70
2018-06-24T07:48:09.758Z,16.80
2018-06-24T07:50:40.310Z,16.80
2018-06-24T07:53:10.859Z,16.80
2018-06-24T07:55:41.409Z,16.80
2018-06-24T07:58:11.918Z,16.70
2018-06-24T08:00:42.439Z,16.60
2018-06-24T08:03:13.342Z,16.50
2018-06-24T08:05:43.944Z,16.40
2018-06-24T08:08:14.461Z,16.20
2018-06-24T08:10:45.030Z,16.10
2018-06-24T08:13:15.536Z,16.00
2018-06-24T08:15:46.089Z,16.00
2018-06-24T08:18:16.649Z,16.20
2018-06-24T08:20:47.169Z,16.20
2018-06-24T08:23:17.718Z,16.40
2018-06-24T08:25:48.279Z,16.50
2018-06-24T08:28:18.862Z,16.40
2018-06-24T08:30:49.391Z,16.30
2018-06-24T08:33:19.965Z,16.30
2018-06-24T08:35:50.521Z,16.20
2018-06-24T08:38:21.015Z,16.30
2018-06-24T08:40:51.577Z,16.40
2018-06-24T08:43:22.111Z,16.50
2018-06-24T08:45:52.661Z,16.70
2018-06-24T08:48:23.273Z,17.00
2018-06-24T08:50:53.834Z,17.10
2018-06-24T08:53:24.356Z,17.30
2018-06-24T08:55:54.927Z,17.30
2018-06-24T08:58:25.448Z,17.30
2018-06-24T09:00:56.017Z,17.20
2018-06-24T09:03:26.514Z,16.80
2018-06-24T09:05:57.107Z,16.50
2018-06-24T09:08:27.636Z,16.10
2018-06-24T09:10:58.227Z,15.90
2018-06-24T09:13:28.760Z,15.80
2018-06-24T09:15:59.360Z,15.80
2018-06-24T09:18:29.849Z,15.80
2018-06-24T09:21:00.420Z,15.60
2018-06-24T09:26:01.052Z,15.90
2018-06-24T09:28:31.588Z,16.30
2018-06-24T09:31:02.167Z,16.70
2018-06-24T09:33:32.733Z,17.00
2018-06-24T09:36:03.239Z,17.30
2018-06-24T09:38:33.903Z,17.50
2018-06-24T09:41:04.497Z,17.60
2018-06-24T09:43:35.150Z,17.80
2018-06-24T09:46:05.733Z,17.80
2018-06-24T09:48:41.615Z,17.60
2018-06-24T09:51:14.415Z,17.50
2018-06-24T09:53:45.182Z,17.20
2018-06-24T09:56:19.036Z,17.10
2018-06-24T09:58:55.504Z,17.00
2018-06-24T10:01:27.805Z,17.20
2018-06-24T10:06:30.417Z,17.90
2018-06-24T10:11:41.782Z,17.90
2018-06-24T10:14:13.515Z,17.90
2018-06-24T10:16:46.069Z,17.70
2018-06-24T10:19:17.153Z,17.30
2018-06-24T10:21:50.952Z,17.30
2018-06-24T10:24:21.489Z,17.60
2018-06-24T10:26:52.038Z,17.80
2018-06-24T10:29:22.595Z,18.00
2018-06-24T10:31:53.104Z,18.10
2018-06-24T10:34:23.621Z,18.10
2018-06-24T10:36:54.130Z,18.30
2018-06-24T10:39:24.698Z,18.40
2018-06-24T10:44:25.402Z,19.30
2018-06-24T10:46:55.995Z,19.80
2018-06-24T10:49:26.584Z,20.30
2018-06-24T10:51:57.097Z,20.90
2018-06-24T10:54:27.803Z,21.40
2018-06-24T10:56:58.351Z,21.70
2018-06-24T10:59:28.891Z,21.90
2018-06-24T11:01:59.522Z,21.90
2018-06-24T11:04:30.034Z,21.70
2018-06-24T11:07:00.573Z,21.50
2018-06-24T11:09:31.130Z,21.30
2018-06-24T11:14:31.746Z,21.10
2018-06-24T11:17:02.270Z,21.50
2018-06-24T11:19:32.866Z,21.80
2018-06-24T11:22:03.392Z,22.30
2018-06-24T11:24:33.940Z,22.50
2018-06-24T11:27:04.442Z,22.30
2018-06-24T11:29:35.056Z,22.10
2018-06-24T11:32:05.563Z,21.60
2018-06-24T11:34:36.093Z,21.40
2018-06-24T11:37:06.978Z,21.50
2018-06-24T11:39:37.512Z,21.20
2018-06-24T11:42:08.037Z,21.00
2018-06-24T11:44:38.619Z,20.60
2018-06-24T11:47:09.145Z,20.00
2018-06-24T11:49:39.781Z,19.50
2018-06-24T11:52:10.349Z,19.20
2018-06-24T11:54:40.936Z,19.10
2018-06-24T11:57:11.534Z,19.00
2018-06-24T11:59:42.028Z,18.90
2018-06-24T12:02:12.633Z,19.10
2018-06-24T12:04:43.149Z,19.40
2018-06-24T12:07:13.717Z,19.80
2018-06-24T12:09:44.302Z,20.10
2018-06-24T12:12:14.941Z,20.30
2018-06-24T12:14:45.441Z,20.50
2018-06-24T12:17:16.028Z,20.70
2018-06-24T12:22:16.821Z,20.70
2018-06-24T12:24:47.419Z,20.90
2018-06-24T12:27:18.018Z,21.10
2018-06-24T12:29:48.596Z,21.30
2018-06-24T12:32:19.242Z,21.30
2018-06-24T12:34:49.789Z,21.00
2018-06-24T12:37:20.332Z,20.80
2018-06-24T12:39:50.877Z,20.70
2018-06-24T12:44:51.541Z,20.50
2018-06-24T12:49:52.373Z,20.90
2018-06-24T12:52:22.893Z,21.10
2018-06-24T12:54:53.425Z,21.10
2018-06-24T12:57:23.990Z,21.20
2018-06-24T13:02:24.685Z,20.80
2018-06-24T13:04:55.232Z,20.70
2018-06-24T13:07:25.751Z,20.60
2018-06-24T13:09:56.317Z,20.70
2018-06-24T13:14:56.953Z,20.60
2018-06-24T13:17:27.483Z,20.70
2018-06-24T13:19:58.005Z,20.80
2018-06-24T13:22:28.600Z,21.00
2018-06-24T13:24:59.148Z,21.20
2018-06-24T13:27:29.775Z,21.20
2018-06-24T13:30:00.276Z,21.40
2018-06-24T13:32:30.831Z,22.10
2018-06-24T13:35:01.419Z,22.90
2018-06-24T13:37:31.974Z,23.20
2018-06-24T13:40:02.519Z,23.50
2018-06-24T13:42:33.087Z,22.90
2018-06-24T13:47:33.767Z,21.50
2018-06-24T13:50:04.401Z,20.70
2018-06-24T13:52:34.970Z,20.00
2018-06-24T13:55:05.643Z,19.60
2018-06-24T13:57:36.916Z,18.90
2018-06-24T14:00:07.684Z,18.50
2018-06-24T14:02:38.240Z,18.10
2018-06-24T14:05:08.803Z,18.00
2018-06-24T14:07:40.446Z,17.60
2018-06-24T14:10:11.075Z,17.50
2018-06-24T14:12:41.761Z,17.50
2018-06-24T14:15:13.497Z,17.50
2018-06-24T14:17:44.081Z,17.60
2018-06-24T14:20:14.712Z,17.60
2018-06-24T14:22:45.377Z,17.60
2018-06-24T14:25:15.965Z,17.60
2018-06-24T14:27:46.510Z,17.50
2018-06-24T14:32:47.256Z,17.50
2018-06-24T14:37:47.867Z,17.50
2018-06-24T14:40:19.514Z,17.50
2018-06-24T14:42:50.039Z,17.50
2018-06-24T14:45:20.597Z,17.50
2018-06-24T14:47:51.145Z,17.60
2018-06-24T14:50:21.644Z,17.60
2018-06-24T14:52:52.229Z,17.60
2018-06-24T14:55:22.828Z,17.70
2018-06-24T15:00:23.782Z,18.60
2018-06-24T15:02:54.337Z,19.20
2018-06-24T15:05:24.880Z,19.70
2018-06-24T15:07:55.369Z,20.40
2018-06-24T15:12:56.012Z,23.00
2018-06-24T15:15:26.559Z,23.80
2018-06-24T15:17:57.084Z,24.50
2018-06-24T15:20:27.647Z,25.10
2018-06-24T15:22:58.199Z,25.20
2018-06-24T15:25:28.805Z,25.30
2018-06-24T15:27:59.349Z,24.90
2018-06-24T15:30:29.901Z,24.40
2018-06-24T15:33:00.537Z,24.10
2018-06-24T15:35:31.067Z,24.10
2018-06-24T15:38:01.651Z,23.50
2018-06-24T15:40:32.254Z,23.10
2018-06-24T15:43:02.794Z,23.20
2018-06-24T15:45:33.364Z,24.10
2018-06-24T15:48:04.157Z,25.00
2018-06-24T15:50:34.684Z,25.90
2018-06-24T15:53:05.312Z,26.70
2018-06-24T15:55:35.874Z,27.30
2018-06-24T15:58:06.518Z,27.50
2018-06-24T16:00:37.051Z,26.70
2018-06-24T16:03:07.882Z,26.50
2018-06-24T16:05:38.459Z,26.70
2018-06-24T16:08:09.013Z,27.20
2018-06-24T16:10:39.750Z,27.60
2018-06-24T16:13:10.295Z,27.20
2018-06-24T16:15:41.097Z,26.30
2018-06-24T16:18:11.654Z,25.90
2018-06-24T16:20:42.369Z,24.90
2018-06-24T16:23:12.832Z,24.40
2018-06-24T16:25:43.445Z,23.50
2018-06-24T16:28:13.950Z,22.80
2018-06-24T16:30:44.800Z,22.20
2018-06-24T16:33:15.301Z,21.70
2018-06-24T16:35:45.836Z,21.30
2018-06-24T16:38:16.424Z,20.70
2018-06-24T16:40:47.022Z,20.40
2018-06-24T16:43:17.659Z,20.10
2018-06-24T16:45:48.177Z,19.90
2018-06-24T16:48:18.705Z,19.40
2018-06-24T16:50:49.239Z,18.90
2018-06-24T16:53:19.794Z,18.70
2018-06-24T16:55:50.367Z,19.00
2018-06-24T16:58:20.876Z,19.50
2018-06-24T17:00:51.449Z,20.10
2018-06-24T17:03:22.061Z,20.50
2018-06-24T17:05:52.593Z,20.70
2018-06-24T17:08:23.080Z,20.80
2018-06-24T17:10:53.692Z,20.70
2018-06-24T17:13:24.248Z,20.70
2018-06-24T17:15:54.913Z,20.40
2018-06-24T17:18:25.441Z,20.00
2018-06-24T17:20:56.009Z,19.70
2018-06-24T17:23:26.533Z,19.40
2018-06-24T17:25:57.165Z,19.00
2018-06-24T17:28:27.681Z,18.90
2018-06-24T17:30:58.458Z,18.70
2018-06-24T17:33:28.981Z,18.60
2018-06-24T17:35:59.541Z,18.50
2018-06-24T17:38:30.084Z,18.30
2018-06-24T17:43:31.029Z,18.10
2018-06-24T17:46:01.642Z,18.00
2018-06-24T17:48:32.149Z,17.90
2018-06-24T17:51:02.717Z,17.80
2018-06-24T17:53:33.392Z,17.70
2018-06-24T17:56:03.887Z,17.60
2018-06-24T17:58:34.394Z,17.60
2018-06-24T18:01:05.205Z,17.60
2018-06-24T18:03:35.734Z,17.60
2018-06-24T18:06:06.399Z,17.60
2018-06-24T18:08:36.977Z,17.40
2018-06-24T18:11:07.608Z,17.40
2018-06-24T18:13:38.069Z,17.30
2018-06-24T18:16:08.666Z,17.10
2018-06-24T18:18:39.162Z,17.10
2018-06-24T18:21:09.768Z,17.00
2018-06-24T18:23:40.342Z,17.00
2018-06-24T18:26:10.985Z,17.00
2018-06-24T18:28:41.542Z,16.90
2018-06-24T18:31:12.439Z,16.80
2018-06-24T18:33:42.968Z,16.80
2018-06-24T18:36:13.548Z,16.70
2018-06-24T18:38:44.380Z,16.70
2018-06-24T18:41:14.987Z,16.70
2018-06-24T18:43:45.517Z,16.70
2018-06-24T18:46:16.319Z,16.70
2018-06-24T18:48:47.005Z,16.60
2018-06-24T18:51:17.594Z,16.60
2018-06-24T18:53:48.120Z,16.60
2018-06-24T18:56:18.662Z,16.50
2018-06-24T18:58:49.172Z,16.50
2018-06-24T19:01:19.762Z,16.50
2018-06-24T19:03:50.337Z,16.40
2018-06-24T19:06:20.891Z,16.40
2018-06-24T19:08:51.494Z,16.30
2018-06-24T19:11:22.067Z,16.20
2018-06-24T19:13:52.566Z,16.20
2018-06-24T19:16:23.161Z,16.10
2018-06-24T19:21:23.877Z,16.00
2018-06-24T19:23:54.416Z,15.90
2018-06-24T19:26:25.043Z,15.90
2018-06-24T19:28:55.551Z,15.80
2018-06-24T19:31:26.452Z,15.80
2018-06-24T19:33:57.165Z,15.70
2018-06-24T19:36:27.729Z,15.70
2018-06-24T19:38:58.271Z,15.70
2018-06-24T19:41:28.884Z,15.70
2018-06-24T19:43:59.412Z,15.60
2018-06-24T19:46:30.848Z,15.60
2018-06-24T19:49:01.393Z,15.60
2018-06-24T19:51:32.065Z,15.50
2018-06-24T19:54:02.613Z,15.50
2018-06-24T19:56:33.141Z,15.50
2018-06-24T19:59:03.668Z,15.40
2018-06-24T20:01:34.477Z,15.40
2018-06-24T20:04:05.017Z,15.40
2018-06-24T20:06:35.573Z,15.40
2018-06-24T20:09:09.772Z,15.40
2018-06-24T20:11:40.336Z,15.40
2018-06-24T20:14:10.826Z,15.40
2018-06-24T20:16:41.500Z,15.30
2018-06-24T20:19:11.989Z,15.30
2018-06-24T20:21:42.497Z,15.30
2018-06-24T20:24:13.008Z,15.30
2018-06-24T20:26:43.573Z,15.20
2018-06-24T20:29:14.089Z,15.10
2018-06-24T20:31:44.695Z,15.10
2018-06-24T20:34:15.221Z,15.10
2018-06-24T20:36:45.789Z,15.00
2018-06-24T20:39:16.281Z,15.00
2018-06-24T20:41:46.829Z,15.00
2018-06-24T20:44:17.381Z,15.10
2018-06-24T20:46:47.866Z,15.10
2018-06-24T20:49:18.833Z,15.00
2018-06-24T20:51:49.404Z,15.00
2018-06-24T20:54:19.957Z,15.00
2018-06-24T20:56:50.483Z,15.10
2018-06-24T20:59:21.100Z,15.10
2018-06-24T21:01:51.642Z,15.00
2018-06-24T21:04:22.222Z,15.00
2018-06-24T21:06:52.736Z,15.00
2018-06-24T21:09:23.327Z,15.00
2018-06-24T21:11:53.901Z,15.00
2018-06-24T21:14:24.437Z,15.00
2018-06-24T21:16:55.029Z,15.00
2018-06-24T21:19:25.833Z,15.00
2018-06-24T21:21:56.361Z,15.00
2018-06-24T21:24:33.990Z,15.00
2018-06-24T21:27:04.592Z,15.00
2018-06-24T21:29:35.159Z,15.00
2018-06-24T21:32:05.970Z,15.00
2018-06-24T21:37:07.945Z,14.90
2018-06-24T21:39:38.528Z,14.90
2018-06-24T21:42:09.126Z,14.90
2018-06-24T21:44:40.188Z,14.80
2018-06-24T21:47:10.928Z,14.80
2018-06-24T21:49:41.945Z,14.80
2018-06-24T21:52:13.340Z,14.80
2018-06-24T21:54:45.038Z,14.90
2018-06-24T21:57:15.669Z,14.90
2018-06-24T21:59:47.951Z,14.80
2018-06-24T22:02:18.960Z,14.80
2018-06-24T22:04:49.697Z,14.80
2018-06-24T22:07:20.253Z,14.80
2018-06-24T22:09:50.824Z,14.70
2018-06-24T22:12:21.514Z,14.70
2018-06-24T22:14:52.180Z,14.70
2018-06-24T22:17:22.881Z,14.70
2018-06-24T22:19:53.867Z,14.60
2018-06-24T22:22:24.547Z,14.60
2018-06-24T22:24:55.179Z,14.60
2018-06-24T22:27:25.896Z,14.60
2018-06-24T22:29:56.478Z,14.60
2018-06-24T22:32:27.118Z,14.60
2018-06-24T22:34:57.799Z,14.60
2018-06-24T22:37:28.516Z,14.60
2018-06-24T22:39:59.100Z,14.50
2018-06-24T22:42:30.748Z,14.50
2018-06-24T22:45:01.386Z,14.40
2018-06-24T22:47:31.930Z,14.40
2018-06-24T22:50:02.504Z,14.40
2018-06-24T22:52:33.054Z,14.40
2018-06-24T22:55:03.593Z,14.40
2018-06-24T22:57:34.140Z,14.40
2018-06-24T23:00:18.662Z,14.40
2018-06-24T23:02:49.481Z,14.40
2018-06-24T23:05:20.196Z,14.40
2018-06-24T23:07:50.791Z,14.40
2018-06-24T23:10:21.341Z,14.30
2018-06-24T23:12:51.882Z,14.30
2018-06-24T23:15:22.497Z,14.30
2018-06-24T23:17:53.030Z,14.30
2018-06-24T23:20:23.582Z,14.30
2018-06-24T23:22:54.116Z,14.30
2018-06-24T23:25:24.615Z,14.30
2018-06-24T23:27:55.169Z,14.20
2018-06-24T23:30:25.668Z,14.20
2018-06-24T23:32:56.208Z,14.20
2018-06-24T23:37:56.792Z,14.10
2018-06-24T23:40:27.289Z,14.10
2018-06-24T23:42:57.829Z,14.10
2018-06-24T23:45:28.406Z,14.10
2018-06-24T23:47:58.882Z,14.10
2018-06-24T23:50:29.406Z,14.10
2018-06-24T23:52:59.894Z,14.10
2018-06-24T23:55:30.549Z,14.10
2018-06-24T23:58:01.320Z,14.10
